Observation data for Hart on 10/14/2019      Previous  Date       Current Mesonet Observations  Soil Data  Daily Summary Page  Observations in Plain Language
KHRS 140500Z 26007KT 11/04 A2999 RMK A01 T01060044  RH  066%=      5-min Rain = 0
KHRS 140505Z 26006KT 10/04 A2998 RMK A01 T01040044  RH  067%=      5-min Rain = 0
KHRS 140510Z 26007KT 11/04 A2999 RMK A01 T01050044  RH  067%=      5-min Rain = 0
KHRS 140515Z 26006KT 10/04 A2999 RMK A01 T01030043  RH  067%=      5-min Rain = 0
KHRS 140520Z 26006KT 10/04 A2998 RMK A01 T01030043  RH  067%=      5-min Rain = 0
KHRS 140525Z 27007KT 10/04 A2998 RMK A01 T01030043  RH  067%=      5-min Rain = 0
KHRS 140530Z 27007KT 10/04 A2998 RMK A01 T01040044  RH  067%=      5-min Rain = 0
KHRS 140535Z 26007KT 11/04 A2998 RMK A01 T01060044  RH  066%=      5-min Rain = 0
KHRS 140540Z 27006KT 11/05 A2999 RMK A01 T01050045  RH  067%=      5-min Rain = 0
KHRS 140545Z 26006KT 10/04 A2999 RMK A01 T01040044  RH  067%=      5-min Rain = 0
KHRS 140550Z 26006KT 10/04 A2999 RMK A01 T01030044  RH  067%=      5-min Rain = 0
KHRS 140555Z 27005KT 10/04 A2999 RMK A01 T01020044  RH  068%=      5-min Rain = 0
KHRS 140600Z 26006KT 10/04 A2999 RMK A01 T01020043  RH  068%=      5-min Rain = 0
KHRS 140605Z 25005KT 10/04 A2999 RMK A01 T01020043  RH  068%=      5-min Rain = 0
KHRS 140610Z 25006KT 10/04 A2999 RMK A01 T01030042  RH  067%=      5-min Rain = 0
KHRS 140615Z 25006KT 10/04 A2999 RMK A01 T00990042  RH  068%=      5-min Rain = 0
KHRS 140620Z 25006KT 10/04 A2998 RMK A01 T00970042  RH  070%=      5-min Rain = 0
KHRS 140625Z 26007KT 10/04 A2998 RMK A01 T00950042  RH  070%=      5-min Rain = 0
KHRS 140630Z 26006KT 09/04 A2999 RMK A01 T00940042  RH  071%=      5-min Rain = 0
KHRS 140635Z 26005KT 09/04 A2998 RMK A01 T00930042  RH  071%=      5-min Rain = 0
KHRS 140640Z 26005KT 09/04 A2998 RMK A01 T00930042  RH  071%=      5-min Rain = 0
KHRS 140645Z 27005KT 09/04 A2998 RMK A01 T00920042  RH  072%=      5-min Rain = 0
KHRS 140650Z 27005KT 09/04 A2998 RMK A01 T00900042  RH  073%=      5-min Rain = 0
KHRS 140655Z 26006KT 09/04 A2999 RMK A01 T00910042  RH  073%=      5-min Rain = 0
KHRS 140700Z 26006KT 09/04 A2999 RMK A01 T00920042  RH  072%=      5-min Rain = 0
KHRS 140705Z 26006KT 09/04 A2998 RMK A01 T00920042  RH  072%=      5-min Rain = 0
KHRS 140710Z 26006KT 09/04 A2998 RMK A01 T00910042  RH  072%=      5-min Rain = 0
KHRS 140715Z 26006KT 09/04 A2998 RMK A01 T00900041  RH  073%=      5-min Rain = 0
KHRS 140720Z 26005KT 09/04 A2998 RMK A01 T00890042  RH  073%=      5-min Rain = 0
KHRS 140725Z 26005KT 09/04 A2998 RMK A01 T00900041  RH  073%=      5-min Rain = 0
KHRS 140730Z 26005KT 09/04 A2998 RMK A01 T00880041  RH  073%=      5-min Rain = 0
KHRS 140735Z 26005KT 09/04 A2998 RMK A01 T00910042  RH  072%=      5-min Rain = 0
KHRS 140740Z 26004KT 09/04 A2998 RMK A01 T00910041  RH  072%=      5-min Rain = 0
KHRS 140745Z 26005KT 09/04 A2998 RMK A01 T00910041  RH  072%=      5-min Rain = 0
KHRS 140750Z 26005KT 09/04 A2998 RMK A01 T00910041  RH  072%=      5-min Rain = 0
KHRS 140755Z 25005KT 09/04 A2998 RMK A01 T00890041  RH  073%=      5-min Rain = 0
KHRS 140800Z 26005KT 09/04 A2998 RMK A01 T00880042  RH  074%=      5-min Rain = 0
KHRS 140805Z 26005KT 09/04 A2998 RMK A01 T00870041  RH  074%=      5-min Rain = 0
KHRS 140810Z 26005KT 09/04 A2998 RMK A01 T00850041  RH  075%=      5-min Rain = 0
KHRS 140815Z 26005KT 08/04 A2998 RMK A01 T00830041  RH  075%=      5-min Rain = 0
KHRS 140820Z 26006KT 08/04 A2998 RMK A01 T00810040  RH  077%=      5-min Rain = 0
KHRS 140825Z 26005KT 08/04 A2998 RMK A01 T00810042  RH  077%=      5-min Rain = 0
KHRS 140830Z 25004KT 09/04 A2998 RMK A01 T00850043  RH  076%=      5-min Rain = 0
KHRS 140835Z 25004KT 09/04 A2997 RMK A01 T00880043  RH  074%=      5-min Rain = 0
KHRS 140840Z 25004KT 09/04 A2997 RMK A01 T00890042  RH  073%=      5-min Rain = 0
KHRS 140845Z 27005KT 09/04 A2997 RMK A01 T00870040  RH  074%=      5-min Rain = 0
KHRS 140850Z 26005KT 08/04 A2997 RMK A01 T00840041  RH  076%=      5-min Rain = 0
KHRS 140855Z 26006KT 08/04 A2997 RMK A01 T00820040  RH  076%=      5-min Rain = 0
KHRS 140900Z 26005KT 08/04 A2997 RMK A01 T00790041  RH  078%=      5-min Rain = 0
KHRS 140905Z 26006KT 08/04 A2997 RMK A01 T00780041  RH  078%=      5-min Rain = 0
KHRS 140910Z 26005KT 08/04 A2997 RMK A01 T00780041  RH  079%=      5-min Rain = 0
KHRS 140915Z 22004KT 08/04 A2997 RMK A01 T00800042  RH  078%=      5-min Rain = 0
KHRS 140920Z 21005KT 08/04 A2998 RMK A01 T00780042  RH  079%=      5-min Rain = 0
KHRS 140925Z 18005KT 08/04 A2998 RMK A01 T00760042  RH  080%=      5-min Rain = 0
KHRS 140930Z 24005KT 07/04 A2998 RMK A01 T00740044  RH  082%=      5-min Rain = 0
KHRS 140935Z 23005KT 08/05 A2998 RMK A01 T00750045  RH  082%=      5-min Rain = 0
KHRS 140940Z 25007KT 08/05 A2998 RMK A01 T00760045  RH  082%=      5-min Rain = 0
KHRS 140945Z 24005KT 08/05 A2998 RMK A01 T00780046  RH  081%=      5-min Rain = 0
KHRS 140950Z 24005KT 08/05 A2998 RMK A01 T00790045  RH  080%=      5-min Rain = 0
KHRS 140955Z 25007KT 08/04 A2998 RMK A01 T00750044  RH  082%=      5-min Rain = 0
KHRS 141000Z 25008KT 08/05 A2998 RMK A01 T00750046  RH  083%=      5-min Rain = 0
KHRS 141005Z 26006KT 08/05 A2998 RMK A01 T00780047  RH  082%=      5-min Rain = 0
KHRS 141010Z 26006KT 08/05 A2998 RMK A01 T00780046  RH  081%=      5-min Rain = 0
KHRS 141015Z 26007KT 08/05 A2998 RMK A01 T00770047  RH  082%=      5-min Rain = 0
KHRS 141020Z 25006KT 08/05 A2998 RMK A01 T00780048  RH  083%=      5-min Rain = 0
KHRS 141025Z 22004KT 08/05 A2997 RMK A01 T00800048  RH  081%=      5-min Rain = 0
KHRS 141030Z 24005KT 08/05 A2997 RMK A01 T00800047  RH  081%=      5-min Rain = 0
KHRS 141035Z 25006KT 08/05 A2997 RMK A01 T00780047  RH  082%=      5-min Rain = 0
KHRS 141040Z 25006KT 08/05 A2997 RMK A01 T00790048  RH  082%=      5-min Rain = 0
KHRS 141045Z 24006KT 08/05 A2997 RMK A01 T00820047  RH  080%=      5-min Rain = 0
KHRS 141050Z 24006KT 09/05 A2998 RMK A01 T00860047  RH  077%=      5-min Rain = 0
KHRS 141055Z 23005KT 09/05 A2997 RMK A01 T00880046  RH  076%=      5-min Rain = 0
KHRS 141100Z 23005KT 09/05 A2997 RMK A01 T00880046  RH  076%=      5-min Rain = 0
KHRS 141105Z 23005KT 09/05 A2998 RMK A01 T00890046  RH  075%=      5-min Rain = 0
KHRS 141110Z 24005KT 09/05 A2998 RMK A01 T00920046  RH  074%=      5-min Rain = 0
KHRS 141115Z 24005KT 09/05 A2998 RMK A01 T00930047  RH  074%=      5-min Rain = 0
KHRS 141120Z 26005KT 09/05 A2998 RMK A01 T00900047  RH  076%=      5-min Rain = 0
KHRS 141125Z 26005KT 09/05 A2998 RMK A01 T00880048  RH  077%=      5-min Rain = 0
KHRS 141130Z 26006KT 09/05 A2998 RMK A01 T00870049  RH  078%=      5-min Rain = 0
KHRS 141135Z 26006KT 09/05 A2999 RMK A01 T00870049  RH  078%=      5-min Rain = 0
KHRS 141140Z 26006KT 09/05 A2999 RMK A01 T00870050  RH  079%=      5-min Rain = 0
KHRS 141145Z 25006KT 09/05 A2999 RMK A01 T00890051  RH  078%=      5-min Rain = 0
KHRS 141150Z 25006KT 09/05 A2999 RMK A01 T00910051  RH  077%=      5-min Rain = 0
KHRS 141155Z 26006KT 09/05 A2999 RMK A01 T00910052  RH  078%=      5-min Rain = 0
KHRS 141200Z 26006KT 09/05 A30 RMK A01 T00920053  RH  077%=      5-min Rain = 0
KHRS 141205Z 24006KT 09/05 A30 RMK A01 T00940053  RH  077%=      5-min Rain = 0
KHRS 141210Z 25006KT 10/05 A2999 RMK A01 T00960052  RH  075%=      5-min Rain = 0
KHRS 141215Z 25006KT 09/05 A2999 RMK A01 T00940053  RH  077%=      5-min Rain = 0
KHRS 141220Z 25006KT 09/05 A30 RMK A01 T00930053  RH  077%=      5-min Rain = 0
KHRS 141225Z 25006KT 09/05 A2999 RMK A01 T00930052  RH  077%=      5-min Rain = 0
KHRS 141230Z 24006KT 09/05 A2999 RMK A01 T00930052  RH  077%=      5-min Rain = 0
KHRS 141235Z 25006KT 09/05 A30 RMK A01 T00920053  RH  077%=      5-min Rain = 0
KHRS 141240Z 25007KT 09/05 A30 RMK A01 T00900053  RH  079%=      5-min Rain = 0
KHRS 141245Z 24006KT 09/05 A2999 RMK A01 T00900053  RH  079%=      5-min Rain = 0
KHRS 141250Z 25006KT 09/05 A30 RMK A01 T00890053  RH  079%=      5-min Rain = 0
KHRS 141255Z 25006KT 09/05 A30 RMK A01 T00880052  RH  080%=      5-min Rain = 0
KHRS 141300Z 26006KT 09/05 A30 RMK A01 T00870053  RH  080%=      5-min Rain = 0
KHRS 141305Z 26006KT 09/05 A30 RMK A01 T00880054  RH  080%=      5-min Rain = 0
KHRS 141310Z 26006KT 09/05 A30 RMK A01 T00880054  RH  080%=      5-min Rain = 0
KHRS 141315Z 26007KT 09/05 A30 RMK A01 T00890054  RH  080%=      5-min Rain = 0
KHRS 141320Z 26007KT 09/06 A30 RMK A01 T00890055  RH  080%=      5-min Rain = 0
KHRS 141325Z 26006KT 09/06 A2999 RMK A01 T00890056  RH  081%=      5-min Rain = 0
KHRS 141330Z 27007KT 09/06 A2999 RMK A01 T00900056  RH  080%=      5-min Rain = 0
KHRS 141335Z 28007KT 09/06 A30 RMK A01 T00920057  RH  080%=      5-min Rain = 0
KHRS 141340Z 27006KT 09/06 A30 RMK A01 T00940058  RH  079%=      5-min Rain = 0
KHRS 141345Z 28006KT 10/06 A30 RMK A01 T00960060  RH  079%=      5-min Rain = 0
KHRS 141350Z 27006KT 10/06 A30 RMK A01 T01000061  RH  078%=      5-min Rain = 0
KHRS 141355Z 27006KT 10/06 A30 RMK A01 T01040062  RH  077%=      5-min Rain = 0
KHRS 141400Z 27007KT 11/06 A30 RMK A01 T01080063  RH  075%=      5-min Rain = 0
KHRS 141405Z 27006KT 11/06 A30 RMK A01 T01110063  RH  073%=      5-min Rain = 0
KHRS 141410Z 27007KT 11/06 A30 RMK A01 T01140063  RH  072%=      5-min Rain = 0
KHRS 141415Z 27007KT 11/06 A3001 RMK A01 T01140062  RH  072%=      5-min Rain = 0
KHRS 141420Z 27007KT 12/06 A3001 RMK A01 T01150063  RH  071%=      5-min Rain = 0
KHRS 141425Z 27006KT 12/07 A3001 RMK A01 T01200065  RH  070%=      5-min Rain = 0
KHRS 141430Z 27006KT 13/07 A3001 RMK A01 T01270067  RH  068%=      5-min Rain = 0
KHRS 141435Z 27006KT 13/07 A3001 RMK A01 T01340068  RH  065%=      5-min Rain = 0
KHRS 141440Z 27006KT 14/07 A3001 RMK A01 T01410069  RH  063%=      5-min Rain = 0
KHRS 141445Z 28005KT 15/07 A3001 RMK A01 T01480070  RH  061%=      5-min Rain = 0
KHRS 141450Z 27005KT 15/07 A3001 RMK A01 T01540069  RH  058%=      5-min Rain = 0
KHRS 141455Z 27005KT 16/07 A3002 RMK A01 T01600070  RH  056%=      5-min Rain = 0
KHRS 141500Z 27005KT 17/07 A3002 RMK A01 T01670069  RH  053%=      5-min Rain = 0
KHRS 141505Z 27005KT 17/07 A3002 RMK A01 T01730070  RH  051%=      5-min Rain = 0
KHRS 141510Z 27006KT 18/07 A3002 RMK A01 T01790070  RH  050%=      5-min Rain = 0
KHRS 141515Z 27005KT 18/07 A3002 RMK A01 T01820071  RH  049%=      5-min Rain = 0
KHRS 141520Z 28006KT 19/07 A3002 RMK A01 T01870070  RH  047%=      5-min Rain = 0
KHRS 141525Z 28007KT 19/07 A3002 RMK A01 T01940067  RH  044%=      5-min Rain = 0
KHRS 141530Z 28007KT 20/07 A3002 RMK A01 T02020065  RH  041%=      5-min Rain = 0
KHRS 141535Z 26007KT 21/06 A3002 RMK A01 T02110063  RH  039%=      5-min Rain = 0
KHRS 141540Z 25008KT 21/06 A3002 RMK A01 T02140063  RH  038%=      5-min Rain = 0
KHRS 141545Z 24007KT 21/07 A3002 RMK A01 T02130069  RH  040%=      5-min Rain = 0
KHRS 141550Z 25006KT 21/07 A3002 RMK A01 T02100070  RH  041%=      5-min Rain = 0
KHRS 141555Z 25007KT 22/07 A3002 RMK A01 T02150067  RH  039%=      5-min Rain = 0
KHRS 141600Z 24006KT 22/07 A3002 RMK A01 T02160070  RH  039%=      5-min Rain = 0
KHRS 141605Z 25007KT 22/07 A3002 RMK A01 T02210068  RH  038%=      5-min Rain = 0
KHRS 141610Z 26007KT 22/07 A3002 RMK A01 T02240065  RH  036%=      5-min Rain = 0
KHRS 141615Z 25006KT 23/07 A3001 RMK A01 T02290066  RH  035%=      5-min Rain = 0
KHRS 141620Z 25007KT 23/06 A3001 RMK A01 T02340064  RH  034%=      5-min Rain = 0
KHRS 141625Z 26007KT 24/06 A3001 RMK A01 T02360061  RH  033%=      5-min Rain = 0
KHRS 141630Z 26006KT 24/07 A3001 RMK A01 T02410065  RH  033%=      5-min Rain = 0
KHRS 141635Z 27008KT 25/06 A3001 RMK A01 T02450063  RH  031%=      5-min Rain = 0
KHRS 141640Z 27008KT 25/06 A3001 RMK A01 T02470061  RH  031%=      5-min Rain = 0
KHRS 141645Z 27008KT 25/06 A3001 RMK A01 T02490061  RH  030%=      5-min Rain = 0
KHRS 141650Z 27008KT 25/06 A30 RMK A01 T02520060  RH  030%=      5-min Rain = 0
KHRS 141655Z 28009KT 25/06 A30 RMK A01 T02540058  RH  029%=      5-min Rain = 0
KHRS 141700Z 26008KT 26/06 A30 RMK A01 T02590062  RH  029%=      5-min Rain = 0
KHRS 141705Z 27009KT 26/06 A30 RMK A01 T02570057  RH  028%=      5-min Rain = 0
KHRS 141710Z 26009KT 26/06 A30 RMK A01 T02600059  RH  028%=      5-min Rain = 0
KHRS 141715Z 28011G16KT 27/05 A30 RMK A01 T02650048  RH  025%=      5-min Rain = 0
KHRS 141720Z 26010G16KT 27/05 A30 RMK A01 T02660051  RH  026%=      5-min Rain = 0
KHRS 141725Z 26010KT 27/05 A30 RMK A01 T02650054  RH  026%=      5-min Rain = 0
KHRS 141730Z 25012G17KT 26/05 A30 RMK A01 T02640054  RH  026%=      5-min Rain = 0
KHRS 141735Z 25011G16KT 26/05 A2999 RMK A01 T02640051  RH  026%=      5-min Rain = 0
KHRS 141740Z 25013KT 27/05 A2999 RMK A01 T02670048  RH  025%=      5-min Rain = 0
KHRS 141745Z 26012G17KT 27/05 A2999 RMK A01 T02680045  RH  024%=      5-min Rain = 0
KHRS 141750Z 26010G15KT 27/05 A2999 RMK A01 T02660050  RH  025%=      5-min Rain = 0
KHRS 141755Z 24013G18KT 27/05 A2999 RMK A01 T02680051  RH  025%=      5-min Rain = 0
KHRS 141800Z 24011G16KT 27/05 A2999 RMK A01 T02680050  RH  025%=      5-min Rain = 0
KHRS 141805Z 23011G16KT 27/05 A2998 RMK A01 T02650054  RH  026%=      5-min Rain = 0
KHRS 141810Z 24012KT 27/05 A2998 RMK A01 T02650053  RH  026%=      5-min Rain = 0
KHRS 141815Z 23011G16KT 27/05 A2998 RMK A01 T02650045  RH  025%=      5-min Rain = 0
KHRS 141820Z 24011G17KT 27/04 A2998 RMK A01 T02680039  RH  023%=      5-min Rain = 0
KHRS 141825Z 24010KT 27/04 A2998 RMK A01 T02660038  RH  023%=      5-min Rain = 0
KHRS 141830Z 24011G17KT 27/04 A2997 RMK A01 T02680038  RH  023%=      5-min Rain = 0
KHRS 141835Z 25010KT 27/04 A2997 RMK A01 T02670038  RH  023%=      5-min Rain = 0
KHRS 141840Z 21010G15KT 27/03 A2997 RMK A01 T02720032  RH  022%=      5-min Rain = 0
KHRS 141845Z 21011KT 27/03 A2997 RMK A01 T02740027  RH  021%=      5-min Rain = 0
KHRS 141850Z 21008G14KT 27/03 A2996 RMK A01 T02710026  RH  021%=      5-min Rain = 0
KHRS 141855Z 21010G15KT 27/03 A2996 RMK A01 T02730032  RH  021%=      5-min Rain = 0
KHRS 141900Z 22009G14KT 27/03 A2996 RMK A01 T02720032  RH  022%=      5-min Rain = 0
KHRS 141905Z 21011KT 27/03 A2996 RMK A01 T02730028  RH  021%=      5-min Rain = 0
KHRS 141910Z 24009KT 28/03 A2995 RMK A01 T02750029  RH  021%=      5-min Rain = 0
KHRS 141915Z 21010G15KT 28/03 A2995 RMK A01 T02750027  RH  020%=      5-min Rain = 0
KHRS 141920Z 20007KT 28/03 A2995 RMK A01 T02770031  RH  021%=      5-min Rain = 0
KHRS 141925Z 20009G14KT 28/02 A2995 RMK A01 T02800023  RH  019%=      5-min Rain = 0
KHRS 141930Z 22012G17KT 28/02 A2995 RMK A01 T02770021  RH  019%=      5-min Rain = 0
KHRS 141935Z 20008KT 28/02 A2994 RMK A01 T02760021  RH  019%=      5-min Rain = 0
KHRS 141940Z 21010G15KT 28/02 A2994 RMK A01 T02790020  RH  019%=      5-min Rain = 0
KHRS 141945Z 22007KT 28/02 A2994 RMK A01 T02770020  RH  019%=      5-min Rain = 0
KHRS 141950Z 19009G14KT 28/02 A2993 RMK A01 T02800021  RH  019%=      5-min Rain = 0
KHRS 141955Z 22011G16KT 28/02 A2993 RMK A01 T02810017  RH  018%=      5-min Rain = 0
KHRS 142000Z 20010G15KT 28/02 A2993 RMK A01 T02800019  RH  019%=      5-min Rain = 0
KHRS 142005Z 20009KT 28/02 A2993 RMK A01 T02800020  RH  019%=      5-min Rain = 0
KHRS 142010Z 21007KT 28/02 A2993 RMK A01 T02790015  RH  018%=      5-min Rain = 0
KHRS 142015Z 21010KT 28/02 A2992 RMK A01 T02800017  RH  019%=      5-min Rain = 0
KHRS 142020Z 20008G13KT 28/02 A2992 RMK A01 T02790018  RH  019%=      5-min Rain = 0
KHRS 142025Z 21009KT 28/02 A2992 RMK A01 T02800018  RH  019%=      5-min Rain = 0
KHRS 142030Z 21008KT 28/01 A2992 RMK A01 T02800014  RH  018%=      5-min Rain = 0
KHRS 142035Z 19009G14KT 28/02 A2992 RMK A01 T02820015  RH  018%=      5-min Rain = 0
KHRS 142040Z 21011G16KT 28/01 A2991 RMK A01 T02820013  RH  018%=      5-min Rain = 0
KHRS 142045Z 21012KT 28/01 A2991 RMK A01 T02800013  RH  018%=      5-min Rain = 0
KHRS 142050Z 19008KT 28/02 A2991 RMK A01 T02820023  RH  019%=      5-min Rain = 0
KHRS 142055Z 20011G17KT 28/01 A2991 RMK A01 T02840011  RH  017%=      5-min Rain = 0
KHRS 142100Z 20011KT 28/01 A2991 RMK A01 T02820009  RH  017%=      5-min Rain = 0
KHRS 142105Z 20011G17KT 28/01 A2991 RMK A01 T02830010  RH  017%=      5-min Rain = 0
KHRS 142110Z 20011G19KT 28/01 A2991 RMK A01 T02830011  RH  017%=      5-min Rain = 0
KHRS 142115Z 21012KT 28/00 A2991 RMK A01 T02820004  RH  017%=      5-min Rain = 0
KHRS 142120Z 21010G17KT 28/00 A2991 RMK A01 T02820002  RH  016%=      5-min Rain = 0
KHRS 142125Z 19011G18KT 28/01 A2991 RMK A01 T02820013  RH  018%=      5-min Rain = 0
KHRS 142130Z 20012KT 28/01 A2991 RMK A01 T02820011  RH  018%=      5-min Rain = 0
KHRS 142135Z 23011G16KT 28/01 A299 RMK A01 T02810012  RH  018%=      5-min Rain = 0
KHRS 142140Z 22011G17KT 28/01 A299 RMK A01 T02810012  RH  018%=      5-min Rain = 0
KHRS 142145Z 20011KT 28/01 A299 RMK A01 T02810014  RH  018%=      5-min Rain = 0
KHRS 142150Z 20012KT 28/01 A299 RMK A01 T02800007  RH  017%=      5-min Rain = 0
KHRS 142155Z 22012G18KT 28/01 A299 RMK A01 T02800009  RH  017%=      5-min Rain = 0
KHRS 142200Z 22012G17KT 28/01 A299 RMK A01 T02790010  RH  018%=      5-min Rain = 0
KHRS 142205Z 21012G17KT 28/01 A299 RMK A01 T02790014  RH  018%=      5-min Rain = 0
KHRS 142210Z 21011KT 28/02 A299 RMK A01 T02770017  RH  019%=      5-min Rain = 0
KHRS 142215Z 22010G16KT 28/02 A299 RMK A01 T02770019  RH  019%=      5-min Rain = 0
KHRS 142220Z 22011KT 28/02 A299 RMK A01 T02770024  RH  020%=      5-min Rain = 0
KHRS 142225Z 21011G18KT 28/03 A299 RMK A01 T02760026  RH  020%=      5-min Rain = 0
KHRS 142230Z 22011KT 28/03 A299 RMK A01 T02770027  RH  020%=      5-min Rain = 0
KHRS 142235Z 20011KT 28/03 A299 RMK A01 T02760027  RH  020%=      5-min Rain = 0
KHRS 142240Z 21008KT 28/03 A299 RMK A01 T02750030  RH  021%=      5-min Rain = 0
KHRS 142245Z 23010KT 27/03 A299 RMK A01 T02740028  RH  021%=      5-min Rain = 0
KHRS 142250Z 23008KT 27/03 A299 RMK A01 T02740030  RH  021%=      5-min Rain = 0
KHRS 142255Z 22008KT 27/03 A299 RMK A01 T02740033  RH  022%=      5-min Rain = 0
KHRS 142300Z 21009KT 27/03 A299 RMK A01 T02740033  RH  022%=      5-min Rain = 0
KHRS 142305Z 21009KT 27/03 A299 RMK A01 T02720030  RH  021%=      5-min Rain = 0
KHRS 142310Z 21009KT 27/03 A299 RMK A01 T02700031  RH  022%=      5-min Rain = 0
KHRS 142315Z 21009KT 27/03 A299 RMK A01 T02690032  RH  022%=      5-min Rain = 0
KHRS 142320Z 21007KT 27/04 A299 RMK A01 T02660040  RH  024%=      5-min Rain = 0
KHRS 142325Z 21008KT 26/04 A299 RMK A01 T02630042  RH  024%=      5-min Rain = 0
KHRS 142330Z 21008KT 26/04 A299 RMK A01 T02600042  RH  025%=      5-min Rain = 0
KHRS 142335Z 21007KT 26/05 A299 RMK A01 T02570045  RH  026%=      5-min Rain = 0
KHRS 142340Z 21007KT 25/04 A299 RMK A01 T02540043  RH  026%=      5-min Rain = 0
KHRS 142345Z 21006KT 25/05 A299 RMK A01 T02500045  RH  027%=      5-min Rain = 0
KHRS 142350Z 21006KT 25/05 A299 RMK A01 T02450047  RH  028%=      5-min Rain = 0
KHRS 142355Z 21006KT 24/05 A299 RMK A01 T02400050  RH  030%=      5-min Rain = 0
KHRS 150000Z 21006KT 23/05 A299 RMK A01 T02340052  RH  031%=      5-min Rain = 0
KHRS 150005Z 20006KT 23/06 A299 RMK A01 T02280056  RH  033%=      5-min Rain = 0
KHRS 150010Z 20006KT 22/06 A299 RMK A01 T02220063  RH  036%=      5-min Rain = 0
KHRS 150015Z 20007KT 21/07 A299 RMK A01 T02130067  RH  039%=      5-min Rain = 0
KHRS 150020Z 20007KT 21/07 A299 RMK A01 T02050070  RH  042%=      5-min Rain = 0
KHRS 150025Z 20006KT 20/07 A2991 RMK A01 T02010072  RH  044%=      5-min Rain = 0
KHRS 150030Z 20006KT 20/07 A2991 RMK A01 T01970072  RH  045%=      5-min Rain = 0
KHRS 150035Z 20007KT 19/07 A2991 RMK A01 T01940073  RH  046%=      5-min Rain = 0
KHRS 150040Z 20007KT 19/07 A2991 RMK A01 T01900074  RH  048%=      5-min Rain = 0
KHRS 150045Z 20007KT 19/08 A2991 RMK A01 T01860076  RH  049%=      5-min Rain = 0
KHRS 150050Z 20007KT 18/08 A2991 RMK A01 T01840075  RH  050%=      5-min Rain = 0
KHRS 150055Z 21004KT 18/07 A2991 RMK A01 T01840074  RH  049%=      5-min Rain = 0
KHRS 150100Z 22003KT 18/07 A2991 RMK A01 T01790073  RH  051%=      5-min Rain = 0
KHRS 150105Z 21005KT 18/07 A2991 RMK A01 T01810073  RH  050%=      5-min Rain = 0
KHRS 150110Z 21005KT 18/07 A2992 RMK A01 T01800074  RH  051%=      5-min Rain = 0
KHRS 150115Z 21006KT 18/07 A2992 RMK A01 T01800074  RH  051%=      5-min Rain = 0
KHRS 150120Z 24005KT 18/07 A2992 RMK A01 T01760074  RH  052%=      5-min Rain = 0
KHRS 150125Z 23005KT 17/07 A2992 RMK A01 T01690074  RH  054%=      5-min Rain = 0
KHRS 150130Z 23005KT 17/07 A2992 RMK A01 T01690073  RH  054%=      5-min Rain = 0
KHRS 150135Z 21007KT 17/07 A2992 RMK A01 T01690074  RH  054%=      5-min Rain = 0
KHRS 150140Z 21008KT 17/08 A2992 RMK A01 T01710075  RH  054%=      5-min Rain = 0
KHRS 150145Z 21008KT 17/08 A2993 RMK A01 T01680077  RH  056%=      5-min Rain = 0
KHRS 150150Z 21007KT 17/08 A2993 RMK A01 T01650078  RH  057%=      5-min Rain = 0
KHRS 150155Z 20007KT 16/08 A2993 RMK A01 T01630079  RH  058%=      5-min Rain = 0
KHRS 150200Z 20007KT 16/08 A2993 RMK A01 T01620079  RH  059%=      5-min Rain = 0
KHRS 150205Z 20007KT 16/08 A2993 RMK A01 T01600080  RH  060%=      5-min Rain = 0
KHRS 150210Z 21006KT 16/08 A2993 RMK A01 T01590079  RH  060%=      5-min Rain = 0
KHRS 150215Z 21005KT 16/08 A2993 RMK A01 T01560079  RH  061%=      5-min Rain = 0
KHRS 150220Z 21005KT 16/08 A2993 RMK A01 T01560079  RH  061%=      5-min Rain = 0
KHRS 150225Z 21005KT 15/08 A2993 RMK A01 T01540079  RH  062%=      5-min Rain = 0
KHRS 150230Z 21005KT 15/08 A2993 RMK A01 T01530079  RH  062%=      5-min Rain = 0
KHRS 150235Z 21005KT 15/08 A2993 RMK A01 T01520079  RH  062%=      5-min Rain = 0
KHRS 150240Z 20005KT 15/08 A2994 RMK A01 T01490079  RH  064%=      5-min Rain = 0
KHRS 150245Z 19007KT 15/08 A2994 RMK A01 T01460080  RH  065%=      5-min Rain = 0
KHRS 150250Z 20007KT 15/08 A2994 RMK A01 T01450080  RH  066%=      5-min Rain = 0
KHRS 150255Z 20007KT 14/08 A2994 RMK A01 T01440080  RH  066%=      5-min Rain = 0
KHRS 150300Z 20008KT 15/08 A2994 RMK A01 T01450080  RH  066%=      5-min Rain = 0
KHRS 150305Z 21007KT 15/08 A2994 RMK A01 T01470081  RH  066%=      5-min Rain = 0
KHRS 150310Z 21007KT 15/08 A2994 RMK A01 T01490081  RH  065%=      5-min Rain = 0
KHRS 150315Z 22007KT 15/08 A2994 RMK A01 T01490081  RH  065%=      5-min Rain = 0
KHRS 150320Z 22006KT 15/08 A2995 RMK A01 T01460081  RH  066%=      5-min Rain = 0
KHRS 150325Z 23006KT 14/08 A2995 RMK A01 T01440081  RH  067%=      5-min Rain = 0
KHRS 150330Z 23006KT 14/08 A2995 RMK A01 T01410080  RH  067%=      5-min Rain = 0
KHRS 150335Z 23006KT 14/08 A2995 RMK A01 T01390079  RH  068%=      5-min Rain = 0
KHRS 150340Z 23006KT 14/08 A2995 RMK A01 T01390080  RH  069%=      5-min Rain = 0
KHRS 150345Z 23006KT 14/08 A2995 RMK A01 T01370080  RH  070%=      5-min Rain = 0
KHRS 150350Z 23007KT 14/08 A2995 RMK A01 T01350081  RH  071%=      5-min Rain = 0
KHRS 150355Z 23007KT 14/08 A2995 RMK A01 T01360082  RH  071%=      5-min Rain = 0
KHRS 150400Z 23007KT 14/08 A2996 RMK A01 T01370082  RH  071%=      5-min Rain = 0
KHRS 150405Z 24006KT 14/08 A2996 RMK A01 T01360082  RH  071%=      5-min Rain = 0
KHRS 150410Z 25005KT 13/08 A2996 RMK A01 T01330081  RH  072%=      5-min Rain = 0
KHRS 150415Z 25006KT 13/08 A2996 RMK A01 T01300080  RH  073%=      5-min Rain = 0
KHRS 150420Z 24006KT 13/08 A2996 RMK A01 T01310080  RH  073%=      5-min Rain = 0
KHRS 150425Z 24005KT 13/08 A2996 RMK A01 T01290080  RH  073%=      5-min Rain = 0
KHRS 150430Z 23005KT 13/08 A2996 RMK A01 T01280079  RH  073%=      5-min Rain = 0
KHRS 150435Z 23006KT 12/08 A2996 RMK A01 T01240078  RH  075%=      5-min Rain = 0
KHRS 150440Z 24007KT 12/08 A2996 RMK A01 T01240080  RH  076%=      5-min Rain = 0
KHRS 150445Z 23007KT 13/08 A2996 RMK A01 T01260080  RH  074%=      5-min Rain = 0
KHRS 150450Z 23007KT 12/08 A2996 RMK A01 T01230080  RH  076%=      5-min Rain = 0
KHRS 150455Z 23007KT 12/08 A2996 RMK A01 T01200079  RH  077%=      5-min Rain = 0

Page generated in 0.0172 seconds.